Time;durP1;ratioP1;P1;durP2;ratioP2;P2;SDS_P1;SDS_P2;PMS_P1;PMS_P2;Temp;Humidity;BMP_temperature;BMP_pressure;BME280_temperature;BME280_humidity;BME280_pressure;Samples;Min_cycle;Max_cycle;Signal;HPM_P1;HPM_P2
2022/06/02 00:01:47;;;;;;;3.90;1.83;;;;;;;20.00;45.63;99543.91;4445514;32;33769;-65
2022/06/02 00:04:26;;;;;;;4.47;2.35;;;;;;;20.02;45.55;99541.84;4450165;32;32333;-65
2022/06/02 00:07:11;;;;;;;4.40;2.30;;;;;;;19.71;46.29;99536.47;4444082;32;32954;-64
2022/06/02 00:10:01;;;;;;;7.73;2.53;;;;;;;19.58;47.01;99544.28;4443029;32;32247;-64
2022/06/02 00:12:34;;;;;;;4.05;2.30;;;;;;;19.62;46.67;99544.81;4451896;32;34131;-65
2022/06/02 00:15:28;;;;;;;4.10;2.37;;;;;;;19.52;46.85;99537.72;4448849;32;33790;-63
2022/06/02 00:18:16;;;;;;;6.25;2.37;;;;;;;19.50;47.12;99536.19;4437467;32;33400;-64
2022/06/02 00:20:50;;;;;;;4.35;2.45;;;;;;;19.39;47.18;99537.44;4436874;32;32870;-64
2022/06/02 00:23:39;;;;;;;4.37;2.35;;;;;;;19.57;46.76;99533.63;4450592;32;33779;-63
2022/06/02 00:26:41;;;;;;;7.47;2.45;;;;;;;19.63;46.64;99527.47;4450274;32;33603;-65
2022/06/02 00:29:14;;;;;;;3.83;2.05;;;;;;;19.38;47.18;99541.16;4449462;32;34324;-64
2022/06/02 00:32:00;;;;;;;4.60;2.45;;;;;;;19.57;46.71;99536.31;4440200;32;34893;-65
2022/06/02 00:34:40;;;;;;;;;;;;;;;19.55;46.71;99525.66;4443143;32;35085;-62
2022/06/02 00:37:23;;;;;;;5.10;2.42;;;;;;;19.64;46.57;99529.19;4434462;32;34147;-64
2022/06/02 00:39:52;;;;;;;5.45;2.58;;;;;;;19.66;46.57;99528.00;4446365;32;34162;-66
2022/06/02 00:42:23;;;;;;;4.80;2.28;;;;;;;19.63;46.46;99517.47;4447858;32;33427;-64
2022/06/02 00:44:56;;;;;;;3.00;1.90;;;;;;;19.69;46.54;99521.37;4447263;32;33292;-65
2022/06/02 00:47:35;;;;;;;3.40;2.00;;;;;;;19.61;46.63;99524.94;4447152;32;33952;-65
2022/06/02 00:50:10;;;;;;;4.37;2.28;;;;;;;19.64;46.50;99521.87;4448442;32;33205;-65
2022/06/02 00:52:47;;;;;;;3.47;2.00;;;;;;;19.63;46.65;99524.75;4441256;32;35050;-66
2022/06/02 00:58:37;;;;;;;3.08;1.80;;;;;;;19.60;46.68;99511.53;4447249;32;33890;-64
2022/06/02 01:01:23;;;;;;;3.65;2.00;;;;;;;19.75;46.36;99509.78;4445613;32;34234;-65
2022/06/02 01:03:53;;;;;;;4.85;2.17;;;;;;;19.82;46.14;99523.50;4445867;32;33843;-66
2022/06/02 01:06:23;;;;;;;3.72;1.92;;;;;;;19.88;46.00;99518.19;4438616;32;33567;-64
2022/06/02 01:09:00;;;;;;;4.03;2.03;;;;;;;20.02;45.76;99511.13;4448619;32;33969;-66
2022/06/02 01:11:46;;;;;;;3.92;1.90;;;;;;;19.96;46.00;99509.97;4448793;32;33346;-64
2022/06/02 01:14:48;;;;;;;3.65;2.05;;;;;;;20.14;45.45;99506.97;4445656;32;33867;-64
2022/06/02 01:17:47;;;;;;;3.58;2.00;;;;;;;20.18;45.37;99513.72;4437543;32;32995;-65
2022/06/02 01:20:15;;;;;;;3.95;2.00;;;;;;;20.16;45.55;99513.06;4421328;32;33861;-66
2022/06/02 01:22:49;;;;;;;3.78;2.20;;;;;;;19.97;45.90;99508.13;4432990;32;33630;-67
2022/06/02 01:25:31;;;;;;;4.00;1.83;;;;;;;20.01;45.60;99504.84;4446753;32;34007;-65
2022/06/02 01:28:23;;;;;;;4.40;1.98;;;;;;;20.13;45.51;99493.56;4450546;32;34976;-65
2022/06/02 01:30:56;;;;;;;4.82;1.92;;;;;;;20.15;45.68;99499.66;4448728;32;32676;-65
2022/06/02 01:33:23;;;;;;;4.80;2.15;;;;;;;20.26;45.37;99488.34;4449438;32;33248;-66
2022/06/02 01:36:09;;;;;;;3.47;1.95;;;;;;;20.25;45.85;99482.03;4451009;32;32481;-65
2022/06/02 01:38:55;;;;;;;;;;;;;;;20.35;45.59;99481.81;4450201;32;33705;-66
2022/06/02 01:41:53;;;;;;;5.15;2.10;;;;;;;20.47;45.08;99484.91;4449913;32;33826;-64
2022/06/02 01:44:46;;;;;;;5.80;2.60;;;;;;;20.45;45.20;99492.44;4447276;32;33353;-64
2022/06/02 01:47:21;;;;;;;3.12;2.17;;;;;;;20.38;45.74;99491.47;4446040;32;33795;-64
2022/06/02 01:50:12;;;;;;;4.45;1.85;;;;;;;20.46;45.27;99491.41;4446384;32;32716;-65
2022/06/02 01:52:45;;;;;;;4.90;2.10;;;;;;;20.46;45.57;99497.66;4442199;32;34537;-64
2022/06/02 01:55:40;;;;;;;4.07;1.90;;;;;;;20.38;45.55;99492.28;4445659;32;34358;-66
2022/06/02 01:58:25;;;;;;;3.97;2.05;;;;;;;20.36;45.65;99491.66;4449722;32;34972;-66
2022/06/02 02:01:10;;;;;;;4.37;2.20;;;;;;;20.63;45.58;99484.78;4447574;32;34005;-65
2022/06/02 02:03:50;;;;;;;3.47;1.90;;;;;;;20.64;45.31;99485.63;4448164;32;34757;-65
2022/06/02 02:06:36;;;;;;;4.00;2.00;;;;;;;20.67;45.00;99485.25;4449065;32;33225;-65
2022/06/02 02:09:10;;;;;;;2.53;1.58;;;;;;;20.72;45.10;99477.38;4446795;32;33531;-65
2022/06/02 02:11:52;;;;;;;6.32;2.10;;;;;;;20.66;45.33;99481.69;4450411;32;34944;-65
2022/06/02 02:14:38;;;;;;;6.28;2.08;;;;;;;20.74;44.89;99488.06;4448415;32;33722;-65
2022/06/02 02:17:31;;;;;;;3.83;2.05;;;;;;;20.73;44.98;99481.78;4452012;32;33169;-65
2022/06/02 02:20:05;;;;;;;2.92;1.70;;;;;;;20.71;45.05;99489.31;4461075;32;33820;-65
2022/06/02 02:23:29;;;;;;;4.32;2.05;;;;;;;20.68;45.37;99495.12;4449021;32;32973;-65
2022/06/02 02:26:07;;;;;;;5.72;2.90;;;;;;;20.63;45.69;99502.97;4413175;32;33626;-65
2022/06/02 02:28:51;;;;;;;3.58;2.00;;;;;;;20.44;45.86;99521.47;4433858;32;34236;-65
2022/06/02 02:31:25;;;;;;;5.05;1.85;;;;;;;20.32;46.65;99539.25;4435313;32;35439;-65
2022/06/02 02:34:32;;;;;;;8.90;2.30;;;;;;;20.32;47.73;99555.56;4448523;32;35184;-65
2022/06/02 02:37:28;;;;;;;5.95;2.20;;;;;;;20.14;48.80;99561.28;4447908;32;34571;-65
2022/06/02 02:40:10;;;;;;;5.30;1.90;;;;;;;20.06;49.13;99566.78;4449206;32;34187;-64
2022/06/02 02:42:51;;;;;;;5.22;2.62;;;;;;;20.22;49.99;99569.41;4446947;32;35003;-64
2022/06/02 02:45:34;;;;;;;6.15;2.55;;;;;;;20.38;49.81;99570.28;4446676;32;33926;-66
2022/06/02 02:48:53;;;;;;;5.50;2.60;;;;;;;20.36;50.03;99578.62;4450335;32;33894;-66
2022/06/02 02:51:38;;;;;;;7.18;3.00;;;;;;;20.27;50.63;99608.78;4424371;32;33260;-66
2022/06/02 02:54:28;;;;;;;6.28;3.53;;;;;;;20.06;51.64;99642.84;4448541;32;35137;-66
2022/06/02 02:57:04;;;;;;;6.87;4.03;;;;;;;19.23;53.83;99627.91;4451133;32;34612;-65
2022/06/02 02:59:51;;;;;;;6.12;3.70;;;;;;;19.54;53.93;99621.69;4447938;32;33812;-65
2022/06/02 03:03:03;;;;;;;6.62;3.65;;;;;;;19.58;54.99;99636.59;4447032;32;33240;-64
2022/06/02 03:05:59;;;;;;;7.12;3.97;;;;;;;19.03;57.96;99642.84;4442048;32;33585;-66
2022/06/02 03:08:59;;;;;;;6.50;3.78;;;;;;;19.26;57.73;99641.13;4451291;32;33648;-65
2022/06/02 03:11:51;;;;;;;8.27;4.05;;;;;;;19.22;58.38;99658.72;4435580;32;33911;-66
2022/06/02 03:14:41;;;;;;;7.50;4.32;;;;;;;18.72;60.58;99657.09;4447787;32;31833;-65
2022/06/02 03:17:20;;;;;;;7.03;4.35;;;;;;;19.29;59.43;99651.63;4448224;32;33799;-66
2022/06/02 03:20:00;;;;;;;7.10;4.53;;;;;;;19.29;60.14;99658.87;4447774;32;34298;-66
2022/06/02 03:23:06;;;;;;;8.80;4.07;;;;;;;19.44;58.82;99659.03;4450933;32;34224;-66
2022/06/02 03:25:46;;;;;;;8.13;4.12;;;;;;;19.53;58.62;99650.69;4450659;32;33378;-67
2022/06/02 03:28:21;;;;;;;6.78;4.68;;;;;;;19.71;58.42;99657.78;4448851;32;33905;-67
2022/06/02 03:30:57;;;;;;;10.23;4.87;;;;;;;19.72;58.47;99673.06;4448246;32;35292;-66
2022/06/02 03:33:27;;;;;;;7.93;3.67;;;;;;;19.82;58.42;99665.56;4446509;32;34684;-67
2022/06/02 03:35:55;;;;;;;9.13;4.90;;;;;;;19.86;58.49;99658.75;4448923;32;32723;-67
2022/06/02 03:38:38;;;;;;;7.68;4.65;;;;;;;19.77;59.42;99655.22;4449057;32;33983;-66
2022/06/02 03:41:09;;;;;;;6.55;3.97;;;;;;;19.76;59.62;99650.81;4448787;32;33963;-65
2022/06/02 03:43:51;;;;;;;8.55;4.55;;;;;;;20.07;59.05;99649.16;4448707;32;33138;-65
2022/06/02 03:46:25;;;;;;;7.97;4.70;;;;;;;20.24;58.72;99627.13;4448614;32;32005;-68
2022/06/02 03:49:11;;;;;;;6.90;4.43;;;;;;;19.48;60.38;99608.81;4448418;32;35025;-64
2022/06/02 03:51:57;;;;;;;9.20;4.70;;;;;;;19.87;59.61;99594.41;4447297;32;35582;-66
2022/06/02 03:54:31;;;;;;;10.15;4.80;;;;;;;20.24;58.47;99591.78;4450297;32;33666;-66
2022/06/02 03:57:32;;;;;;;8.68;5.07;;;;;;;20.42;58.23;99577.06;4446056;32;32999;-66
2022/06/02 04:00:16;;;;;;;8.40;4.22;;;;;;;20.32;58.55;99577.31;4448566;32;33683;-66
2022/06/02 04:02:50;;;;;;;9.07;4.95;;;;;;;20.51;58.34;99580.53;4446988;32;35123;-66
2022/06/02 04:05:23;;;;;;;11.23;5.50;;;;;;;20.54;57.99;99583.78;4435969;32;34689;-66
2022/06/02 04:07:59;;;;;;;9.55;5.28;;;;;;;20.41;58.33;99589.78;4449935;32;34657;-66
2022/06/02 04:10:40;;;;;;;10.27;4.75;;;;;;;20.44;58.45;99597.56;4448874;32;32721;-66
2022/06/02 04:13:37;;;;;;;14.63;5.80;;;;;;;20.39;58.57;99604.63;4447893;32;34906;-64
2022/06/02 04:16:07;;;;;;;7.95;4.47;;;;;;;20.16;59.90;99607.28;4444008;32;33869;-64
2022/06/02 04:18:48;;;;;;;8.43;4.43;;;;;;;20.20;60.04;99614.94;4448666;32;31921;-64
2022/06/02 04:21:57;;;;;;;10.80;5.00;;;;;;;20.41;59.46;99614.25;4448062;32;35121;-64
2022/06/02 04:24:32;;;;;;;9.85;4.62;;;;;;;19.95;61.28;99624.25;4379635;32;34041;-65
2022/06/02 04:27:20;;;;;;;7.90;4.62;;;;;;;20.37;59.88;99621.09;4437750;32;33876;-64
2022/06/02 04:30:14;;;;;;;7.65;4.80;;;;;;;20.48;59.21;99620.69;4448405;32;33485;-64
2022/06/02 04:33:08;;;;;;;8.90;4.37;;;;;;;20.56;58.81;99605.34;4449780;32;32551;-64
2022/06/02 04:35:57;;;;;;;9.60;4.50;;;;;;;20.63;58.58;99601.72;4435737;32;33493;-64
2022/06/02 04:38:57;;;;;;;10.05;4.95;;;;;;;20.59;59.00;99608.53;4446263;32;31482;-64
2022/06/02 04:41:31;;;;;;;7.90;4.22;;;;;;;20.72;59.11;99621.53;4430719;32;33363;-65
2022/06/02 04:44:15;;;;;;;7.03;4.20;;;;;;;20.78;59.18;99625.41;4446747;32;33696;-65
2022/06/02 04:47:20;;;;;;;9.23;4.37;;;;;;;20.79;58.89;99624.34;4448391;32;34071;-64
2022/06/02 04:50:00;;;;;;;9.48;4.15;;;;;;;20.74;59.01;99624.03;4447335;32;33966;-65
2022/06/02 04:52:46;;;;;;;7.82;4.28;;;;;;;20.79;58.72;99619.75;4447359;32;34595;-64
2022/06/02 04:55:26;;;;;;;8.38;4.32;;;;;;;20.87;58.91;99622.41;4448401;32;33764;-64
2022/06/02 04:57:59;;;;;;;6.95;4.20;;;;;;;20.76;59.35;99616.56;4447747;32;33889;-63
2022/06/02 05:00:37;;;;;;;6.70;4.93;;;;;;;20.85;59.23;99626.34;4447927;32;33874;-64
2022/06/02 05:03:24;;;;;;;6.97;4.57;;;;;;;21.05;58.81;99615.78;4447153;32;33431;-65
2022/06/02 05:06:00;;;;;;;7.10;4.60;;;;;;;20.59;60.53;99622.16;4448666;32;33278;-65
2022/06/02 05:08:36;;;;;;;9.27;4.12;;;;;;;21.03;59.61;99626.87;4450680;32;33607;-65
2022/06/02 05:11:07;;;;;;;10.27;5.60;;;;;;;21.16;58.86;99635.22;4450465;32;33917;-65
2022/06/02 05:14:01;;;;;;;8.20;4.28;;;;;;;21.09;58.33;99642.44;4448478;32;32151;-65
2022/06/02 05:17:07;;;;;;;6.12;4.22;;;;;;;21.12;57.95;99639.34;4448005;32;33761;-65
2022/06/02 05:19:37;;;;;;;;;;;;;;;21.14;57.95;99640.00;4443641;32;32936;-66
2022/06/02 05:22:46;;;;;;;6.82;3.85;;;;;;;21.24;57.96;99647.91;4447466;32;35363;-66
2022/06/02 05:25:35;;;;;;;10.15;4.47;;;;;;;21.09;58.77;99645.16;4451139;32;33467;-66
2022/06/02 05:28:17;;;;;;;8.25;4.03;;;;;;;21.18;58.44;99659.53;4450790;32;34608;-66
2022/06/02 05:31:19;;;;;;;5.65;4.25;;;;;;;21.14;58.54;99658.22;4450751;32;35031;-66
2022/06/02 05:34:02;;;;;;;8.07;4.18;;;;;;;21.13;59.00;99656.53;4449831;32;33690;-65
2022/06/02 05:36:54;;;;;;;5.85;4.05;;;;;;;21.07;59.45;99662.72;4452314;32;31795;-66
2022/06/02 05:39:33;;;;;;;5.95;4.12;;;;;;;21.09;59.84;99664.22;4420843;32;34828;-66
2022/06/02 05:42:11;;;;;;;7.68;4.50;;;;;;;21.27;59.28;99666.56;4404302;32;32942;-66
2022/06/02 05:45:12;;;;;;;7.05;4.30;;;;;;;21.07;59.76;99669.00;4412139;32;32323;-66
2022/06/02 05:48:01;;;;;;;7.85;4.15;;;;;;;21.15;59.93;99682.53;4420888;32;33141;-66
2022/06/02 05:50:40;;;;;;;8.82;4.70;;;;;;;21.23;59.28;99673.44;4418119;32;35089;-65
2022/06/02 05:53:23;;;;;;;9.00;4.37;;;;;;;21.35;59.44;99676.59;4410943;32;34411;-65
2022/06/02 05:56:35;;;;;;;12.05;4.30;;;;;;;21.13;60.88;99673.69;4405432;32;35167;-66
2022/06/02 05:59:09;;;;;;;6.37;3.72;;;;;;;21.29;61.88;99678.12;4379218;32;33099;-65
2022/06/02 06:02:10;;;;;;;7.82;4.32;;;;;;;21.46;60.90;99686.16;4411375;32;33557;-66
2022/06/02 06:04:51;;;;;;;7.22;3.47;;;;;;;21.56;59.61;99690.28;4407847;32;32706;-66
2022/06/02 06:07:55;;;;;;;5.90;3.47;;;;;;;21.68;59.24;99684.41;4415916;32;33489;-66
2022/06/02 06:10:40;;;;;;;5.10;3.47;;;;;;;21.94;59.70;99689.34;4413196;32;34067;-66
2022/06/02 06:13:52;;;;;;;5.37;3.58;;;;;;;21.72;59.80;99686.53;4413540;32;33688;-67
2022/06/02 06:16:30;;;;;;;6.80;3.65;;;;;;;21.99;59.05;99671.41;4404585;32;33606;-66
2022/06/02 06:19:03;;;;;;;9.27;4.40;;;;;;;21.91;58.40;99676.09;4407889;32;32891;-67
2022/06/02 06:21:55;;;;;;;6.22;4.12;;;;;;;22.03;58.61;99678.16;4418773;32;33821;-66
2022/06/02 06:24:28;;;;;;;7.95;4.20;;;;;;;22.18;57.77;99680.87;4420437;32;34597;-68
2022/06/02 06:27:12;;;;;;;7.32;4.10;;;;;;;22.55;57.00;99689.91;4419873;32;33163;-67
2022/06/02 06:30:22;;;;;;;6.72;3.87;;;;;;;22.54;56.89;99682.78;4404466;32;32589;-66
2022/06/02 06:32:53;;;;;;;7.75;5.37;;;;;;;22.67;55.98;99684.78;4403743;32;32348;-66
2022/06/02 06:35:29;;;;;;;8.57;5.30;;;;;;;22.56;55.42;99700.59;4410477;32;35376;-68
2022/06/02 06:38:06;;;;;;;6.43;5.07;;;;;;;22.69;55.92;99699.06;4426515;32;34052;-68
2022/06/02 06:40:49;;;;;;;7.40;5.15;;;;;;;22.44;57.70;99706.75;4450278;32;34273;-66
2022/06/02 06:43:55;;;;;;;9.43;5.87;;;;;;;22.44;58.89;99701.31;4443457;32;34192;-67
2022/06/02 06:46:37;;;;;;;7.05;4.62;;;;;;;22.21;57.34;99717.81;4451224;32;34593;-67
2022/06/02 06:49:13;;;;;;;8.48;5.32;;;;;;;22.72;55.68;99715.88;4437503;32;34924;-66
2022/06/02 06:52:00;;;;;;;6.40;4.60;;;;;;;22.86;55.04;99716.88;4443756;32;33499;-66
2022/06/02 06:54:44;;;;;;;7.35;4.85;;;;;;;22.89;54.82;99719.22;4445862;32;32963;-65
2022/06/02 06:57:25;;;;;;;7.62;4.78;;;;;;;22.79;54.88;99715.94;4448280;32;33932;-66
2022/06/02 07:00:21;;;;;;;8.43;4.90;;;;;;;22.99;55.01;99725.22;4447310;32;33976;-65
2022/06/02 07:03:10;;;;;;;7.07;4.28;;;;;;;22.97;55.12;99724.56;4444984;32;33462;-68
2022/06/02 07:05:43;;;;;;;6.90;4.15;;;;;;;23.12;53.83;99719.03;4434962;32;34219;-66
2022/06/02 07:08:31;;;;;;;7.07;4.40;;;;;;;23.21;53.74;99725.19;4449143;32;34582;-67
2022/06/02 07:14:33;;;;;;;8.23;4.70;;;;;;;23.11;54.58;99722.78;4446043;32;34150;-65
2022/06/02 07:17:09;;;;;;;6.75;4.53;;;;;;;23.30;54.04;99726.72;4448518;32;33655;-65
2022/06/02 07:19:42;;;;;;;;;;;;;;;23.13;54.91;99725.34;4449577;32;33676;-66
2022/06/02 07:22:19;;;;;;;6.05;2.95;;;;;;;23.25;51.03;99731.97;4446593;32;34718;-66
2022/06/02 07:25:01;;;;;;;5.80;3.62;;;;;;;23.23;52.36;99734.87;4449564;32;33887;-67
2022/06/02 07:27:48;;;;;;;4.72;3.00;;;;;;;23.33;51.23;99720.88;4449001;32;32061;-66
2022/06/02 07:30:27;;;;;;;6.10;4.47;;;;;;;23.45;51.12;99718.47;4447208;32;126573;-66
2022/06/02 07:33:37;;;;;;;5.10;3.40;;;;;;;23.43;51.99;99721.38;4448869;32;32958;-65
2022/06/02 07:36:26;;;;;;;6.37;3.80;;;;;;;23.33;53.33;99720.03;4446736;32;34797;-67
2022/06/02 07:39:34;;;;;;;6.03;3.65;;;;;;;23.38;53.55;99721.13;4447414;32;33419;-65
2022/06/02 07:42:16;;;;;;;5.53;3.15;;;;;;;23.37;52.04;99716.72;4449220;32;32777;-65
2022/06/02 07:45:04;;;;;;;5.05;2.60;;;;;;;23.14;51.31;99727.03;4443935;32;32971;-65
2022/06/02 07:47:59;;;;;;;6.60;2.87;;;;;;;23.27;50.64;99732.59;4452023;32;33658;-66
2022/06/02 07:50:32;;;;;;;7.65;3.72;;;;;;;23.29;50.48;99735.13;4448100;32;33175;-66
2022/06/02 07:53:16;;;;;;;5.03;2.72;;;;;;;22.60;52.41;99728.38;4450557;32;32621;-66
2022/06/02 07:55:57;;;;;;;;;;;;;;;23.43;50.42;99726.84;4453703;32;33372;-66
2022/06/02 07:58:57;;;;;;;4.78;3.20;;;;;;;23.59;51.05;99725.69;4452978;32;34101;-67
2022/06/02 08:01:33;;;;;;;4.20;2.65;;;;;;;23.40;52.65;99723.66;4423599;32;33174;-67
2022/06/02 08:04:10;;;;;;;6.37;2.83;;;;;;;23.71;49.64;99732.31;4451073;32;32610;-65
2022/06/02 08:06:44;;;;;;;6.00;3.60;;;;;;;23.29;51.42;99737.88;4452621;32;33864;-65
2022/06/02 08:09:20;;;;;;;5.45;3.33;;;;;;;22.83;53.13;99739.09;4451515;32;34180;-68
2022/06/02 08:11:56;;;;;;;6.15;2.67;;;;;;;23.32;51.92;99743.78;4450376;32;32585;-66
2022/06/02 08:14:33;;;;;;;8.32;3.22;;;;;;;23.33;51.73;99740.00;4446624;32;34094;-66
2022/06/02 08:17:20;;;;;;;5.12;2.90;;;;;;;23.26;51.36;99736.38;4450854;32;33552;-66
2022/06/02 08:20:14;;;;;;;4.57;2.53;;;;;;;23.27;50.28;99727.13;4438657;32;32437;-66
2022/06/02 08:22:55;;;;;;;5.65;3.40;;;;;;;23.10;51.06;99739.38;4451321;32;33488;-67
2022/06/02 08:25:26;;;;;;;7.18;3.25;;;;;;;22.98;52.79;99741.78;4449837;32;34697;-67
2022/06/02 08:28:02;;;;;;;6.25;3.20;;;;;;;23.43;50.44;99731.47;4451382;32;33999;-66
2022/06/02 08:30:58;;;;;;;5.35;3.22;;;;;;;23.69;50.70;99739.91;4450081;32;34702;-66
2022/06/02 08:34:07;;;;;;;5.78;3.20;;;;;;;23.88;49.49;99742.94;4452499;32;32139;-67
2022/06/02 08:37:13;;;;;;;5.28;3.20;;;;;;;23.17;50.65;99743.00;4448404;32;33851;-65
2022/06/02 08:39:46;;;;;;;6.65;3.42;;;;;;;23.44;50.89;99744.94;4451282;32;34069;-65
2022/06/02 08:43:08;;;;;;;6.35;3.80;;;;;;;24.08;49.23;99740.34;4449556;32;34750;-66
2022/06/02 08:45:42;;;;;;;5.18;3.17;;;;;;;24.25;48.45;99740.84;4390024;32;32152;-66
2022/06/02 08:48:31;;;;;;;6.37;3.30;;;;;;;24.11;48.79;99742.66;4450504;32;33438;-66
2022/06/02 08:51:24;;;;;;;6.12;4.03;;;;;;;24.23;48.95;99749.22;4448219;32;34105;-67
2022/06/02 08:54:30;;;;;;;4.50;2.85;;;;;;;24.11;48.61;99739.94;4435740;32;35326;-66
2022/06/02 08:57:24;;;;;;;7.45;3.35;;;;;;;23.76;49.29;99745.41;4445938;32;33181;-66
2022/06/02 09:00:07;;;;;;;5.60;2.83;;;;;;;23.95;48.88;99746.56;4450356;32;33942;-65
2022/06/02 09:02:59;;;;;;;4.95;3.10;;;;;;;24.11;48.17;99742.66;4451516;32;33787;-65
2022/06/02 09:05:39;;;;;;;5.32;2.92;;;;;;;23.89;49.01;99748.22;4450761;32;34027;-65
2022/06/02 09:08:07;;;;;;;6.70;2.85;;;;;;;25.02;46.86;99747.81;4450383;32;33202;-66
2022/06/02 09:10:48;;;;;;;4.28;2.42;;;;;;;24.94;46.07;99761.69;4448703;32;34508;-67
2022/06/02 09:13:53;;;;;;;4.85;2.55;;;;;;;24.90;45.83;99760.44;4447216;32;35127;-66
2022/06/02 09:16:31;;;;;;;4.35;2.28;;;;;;;25.36;45.09;99766.00;4449633;32;33976;-65
2022/06/02 09:19:02;;;;;;;4.30;2.50;;;;;;;25.04;45.94;99762.13;4452271;32;32085;-67
2022/06/02 09:21:46;;;;;;;4.80;2.40;;;;;;;24.97;45.71;99769.50;4445405;32;34901;-67
2022/06/02 09:24:45;;;;;;;5.00;2.42;;;;;;;24.95;46.94;99766.97;4441902;32;34027;-68
2022/06/02 09:27:19;;;;;;;4.47;2.03;;;;;;;24.95;47.05;99780.66;4436249;32;34688;-66
2022/06/02 09:30:12;;;;;;;4.50;2.20;;;;;;;25.65;45.03;99767.47;4450947;32;31886;-68
2022/06/02 09:32:56;;;;;;;3.92;2.17;;;;;;;25.84;45.09;99768.50;4449831;32;33843;-68
2022/06/02 09:36:16;;;;;;;5.30;2.20;;;;;;;25.86;44.11;99782.84;4450671;32;35282;-66
2022/06/02 09:39:09;;;;;;;5.53;2.28;;;;;;;25.83;44.79;99774.22;4443550;32;33808;-66
2022/06/02 09:41:42;;;;;;;3.80;2.00;;;;;;;26.12;42.78;99773.72;4447771;32;33381;-66
2022/06/02 09:44:27;;;;;;;4.22;1.80;;;;;;;25.99;42.89;99788.31;4454992;32;33745;-65
2022/06/02 09:47:18;;;;;;;5.18;1.73;;;;;;;26.16;42.21;99774.13;4448505;32;35235;-66
2022/06/02 09:50:11;;;;;;;3.97;2.08;;;;;;;26.57;42.09;99776.56;4441245;32;35285;-65
2022/06/02 09:52:50;;;;;;;4.22;2.15;;;;;;;26.39;41.04;99771.75;4450997;32;33925;-65
2022/06/02 09:55:42;;;;;;;4.55;1.98;;;;;;;26.19;41.95;99770.97;4438607;32;33735;-65
2022/06/02 09:58:09;;;;;;;5.03;2.33;;;;;;;25.51;43.07;99774.84;4452430;32;35684;-66
2022/06/02 10:00:55;;;;;;;4.60;2.15;;;;;;;26.22;42.44;99754.06;4452327;32;35138;-66
2022/06/02 10:03:42;;;;;;;4.85;2.42;;;;;;;26.60;41.53;99756.91;4438635;32;32229;-67
2022/06/02 10:06:30;;;;;;;5.03;2.40;;;;;;;26.15;42.77;99754.09;4446745;32;33838;-65
2022/06/02 10:09:18;;;;;;;4.47;2.47;;;;;;;26.64;42.24;99760.03;4453585;32;34760;-67
2022/06/02 10:12:54;;;;;;;4.50;2.20;;;;;;;26.61;41.64;99760.47;4452572;32;33752;-65
2022/06/02 10:14:55;;;;;;;5.40;2.72;;;;;;;26.32;43.25;99762.69;4448548;32;32369;-65
2022/06/02 10:17:27;;;;;;;5.10;2.33;;;;;;;27.19;41.51;99752.13;4455335;32;33559;-65
2022/06/02 10:20:22;;;;;;;4.47;2.30;;;;;;;27.72;40.66;99765.41;4449325;32;34056;-66
2022/06/02 10:23:06;;;;;;;4.30;2.30;;;;;;;27.76;40.22;99752.06;4450297;32;32728;-66
2022/06/02 10:25:39;;;;;;;5.37;2.13;;;;;;;28.14;40.58;99753.81;4446922;32;33543;-65
2022/06/02 10:28:45;;;;;;;3.83;2.17;;;;;;;27.74;40.60;99749.56;4444070;32;33533;-65
2022/06/02 10:31:34;;;;;;;3.62;2.00;;;;;;;27.32;41.08;99757.53;4432895;32;33814;-66
2022/06/02 10:34:43;;;;;;;3.12;1.92;;;;;;;27.50;40.92;99753.97;4450992;32;35215;-66
2022/06/02 10:37:40;;;;;;;8.35;3.30;;;;;;;26.98;40.77;99763.47;4412303;32;33271;-66
2022/06/02 10:40:38;;;;;;;4.30;2.22;;;;;;;27.56;40.01;99753.09;4441715;32;32734;-63
2022/06/02 10:43:34;;;;;;;4.68;2.75;;;;;;;27.59;40.67;99757.31;4428220;32;32593;-64
2022/06/02 10:46:39;;;;;;;5.03;2.25;;;;;;;26.84;41.35;99758.06;4450045;32;33674;-64
2022/06/02 10:49:35;;;;;;;4.47;2.53;;;;;;;27.98;40.45;99763.50;4434641;32;32199;-64
2022/06/02 10:52:21;;;;;;;;;;;;;;;27.80;40.24;99758.81;4445349;32;32500;-65
2022/06/02 10:55:38;;;;;;;4.40;2.30;;;;;;;27.83;40.64;99767.47;4447841;32;34361;-65
2022/06/02 10:58:11;;;;;;;4.75;2.53;;;;;;;27.49;41.40;99762.47;4394217;32;33937;-63
2022/06/02 11:01:03;;;;;;;8.60;2.63;;;;;;;28.20;39.46;99761.16;4440767;32;34468;-66
2022/06/02 11:04:08;;;;;;;4.30;2.67;;;;;;;27.97;39.52;99764.59;4449455;32;33987;-65
2022/06/02 11:06:38;;;;;;;4.18;2.70;;;;;;;27.78;40.82;99749.97;4439858;32;34122;-63
2022/06/02 11:09:53;;;;;;;4.60;2.97;;;;;;;28.23;41.08;99752.44;4450717;32;33051;-78
2022/06/02 11:12:58;;;;;;;4.80;2.28;;;;;;;28.09;40.24;99752.59;4447398;32;33668;-64
2022/06/02 11:15:51;;;;;;;3.77;1.87;;;;;;;27.64;39.25;99752.81;4445778;32;34937;-64
2022/06/02 11:18:40;;;;;;;5.95;2.60;;;;;;;28.10;38.54;99750.69;4455088;32;33271;-64
2022/06/02 11:21:33;;;;;;;8.38;2.70;;;;;;;27.37;40.80;99754.94;4442685;32;35091;-65
2022/06/02 11:24:27;;;;;;;3.87;2.55;;;;;;;27.27;41.07;99762.00;4448754;32;31906;-65
2022/06/02 11:27:14;;;;;;;4.57;2.28;;;;;;;27.98;39.57;99747.00;4443533;32;33674;-64
2022/06/02 11:30:27;;;;;;;4.50;2.22;;;;;;;27.77;39.58;99751.88;4447076;32;33662;-64
2022/06/02 11:33:16;;;;;;;6.35;2.22;;;;;;;28.67;38.99;99744.91;4442500;32;35040;-64
2022/06/02 11:36:21;;;;;;;4.50;2.20;;;;;;;28.77;37.94;99757.06;4444083;32;34138;-64
2022/06/02 11:39:17;;;;;;;2.55;1.50;;;;;;;28.40;37.93;99760.94;4443488;32;33563;-64
2022/06/02 11:41:52;;;;;;;3.83;2.10;;;;;;;28.55;37.98;99762.22;4446534;32;34035;-65
2022/06/02 11:44:34;;;;;;;5.15;2.15;;;;;;;28.69;38.01;99770.28;4441927;32;33512;-65
2022/06/02 11:47:27;;;;;;;5.15;1.90;;;;;;;28.26;37.92;99769.31;4438260;32;32784;-66
2022/06/02 11:50:13;;;;;;;3.55;2.15;;;;;;;28.46;37.66;99760.00;4447499;32;33934;-65
2022/06/02 11:53:19;;;;;;;3.55;1.80;;;;;;;27.89;38.60;99762.13;4449095;32;34121;-65
2022/06/02 11:55:55;;;;;;;5.25;2.08;;;;;;;27.75;37.08;99756.72;4379753;32;33110;-66
2022/06/02 11:58:45;;;;;;;3.70;1.83;;;;;;;26.92;39.09;99774.25;4432876;32;34677;-66
2022/06/02 12:01:24;;;;;;;2.53;1.50;;;;;;;27.67;38.35;99769.91;4440648;32;33158;-66
2022/06/02 12:04:21;;;;;;;3.70;1.55;;;;;;;27.00;37.96;99772.28;4445678;32;32685;-65
2022/06/02 12:07:10;;;;;;;3.33;1.12;;;;;;;27.20;37.35;99769.47;4447894;32;33732;-66
2022/06/02 12:10:14;;;;;;;4.03;1.52;;;;;;;27.37;36.72;99763.19;4449623;32;33075;-65
2022/06/02 12:12:59;;;;;;;3.47;1.40;;;;;;;26.76;37.13;99768.44;4426683;32;35462;-66
2022/06/02 12:15:51;;;;;;;6.03;1.75;;;;;;;27.91;36.22;99771.00;4442392;32;33977;-66
2022/06/02 12:18:32;;;;;;;3.25;1.48;;;;;;;27.31;37.40;99763.25;4448636;32;33525;-67
2022/06/02 12:21:03;;;;;;;2.83;1.40;;;;;;;27.06;37.78;99765.91;4448694;32;33132;-65
2022/06/02 12:23:52;;;;;;;4.40;1.40;;;;;;;27.57;36.97;99767.66;4450893;32;33825;-65
2022/06/02 12:26:33;;;;;;;1.70;1.15;;;;;;;27.18;36.97;99773.25;4441186;32;33627;-65
2022/06/02 12:29:26;;;;;;;1.65;1.00;;;;;;;26.93;37.07;99783.31;4444349;32;33475;-66
2022/06/02 12:31:54;;;;;;;2.22;1.20;;;;;;;27.09;35.99;99770.97;4438086;32;33662;-66
2022/06/02 12:34:51;;;;;;;2.03;1.20;;;;;;;27.41;34.46;99780.91;4448690;32;34975;-65
2022/06/02 12:37:51;;;;;;;2.05;1.00;;;;;;;27.74;34.00;99770.72;4391684;32;34136;-64
2022/06/02 12:40:24;;;;;;;1.65;0.82;;;;;;;27.74;34.00;99776.22;4429394;32;33961;-65
2022/06/02 12:43:01;;;;;;;1.67;1.02;;;;;;;27.64;33.39;99782.22;4446037;32;33606;-64
2022/06/02 12:45:44;;;;;;;1.00;0.75;;;;;;;27.84;33.78;99780.16;4447299;32;32296;-64
2022/06/02 12:48:50;;;;;;;3.95;1.00;;;;;;;27.75;32.30;99777.88;4445650;32;32391;-66
2022/06/02 12:51:39;;;;;;;1.98;1.05;;;;;;;27.86;32.94;99785.41;4438363;32;34268;-65
2022/06/02 12:54:44;;;;;;;2.22;1.20;;;;;;;27.94;33.69;99778.78;4432121;32;32240;-64
2022/06/02 12:57:45;;;;;;;2.20;1.05;;;;;;;28.01;33.48;99791.41;4441424;32;35046;-64
2022/06/02 13:00:19;;;;;;;5.62;1.95;;;;;;;28.13;33.81;99779.66;4443550;32;33928;-64
2022/06/02 13:03:22;;;;;;;2.20;1.20;;;;;;;28.22;34.11;99781.00;4439928;32;33807;-67
2022/06/02 13:06:14;;;;;;;2.15;1.20;;;;;;;28.41;33.99;99781.88;4436740;32;31933;-65
2022/06/02 13:09:03;;;;;;;2.70;1.12;;;;;;;28.40;33.85;99788.47;4449250;32;34818;-65
2022/06/02 13:11:56;;;;;;;2.55;1.35;;;;;;;28.06;33.85;99780.56;4442703;32;34251;-65